Flight Track Log - Related Links

Times and Time Zones

All times are in EDT time to prevent confusion due to time zone crossing. See the ASQ5963 flight status page for this flight to view local times or setup timezone preferences in your user account.


Time Position Orientation Groundspeed Altitude Reporting Facility
EDT Latitude Longitude Course Direction KTS MPH feet Rate Location/Type
Fri 02:08:27 PM 29.9594 -95.3414 90° East 171 197 600  Level Houston Center
Fri 02:09:47 PM 29.9114 -95.2750 130° Southeast 242 278 2,400 1,309 Climbing Houston Center
Fri 02:10:17 PM 29.8964 -95.2536 129° Southeast 219 252 3,000 1,676 Climbing Houston Center
Fri 02:10:55 PM 29.8589 -95.2067 133° Southeast 255 293 4,300 2,082 Climbing Houston Center
Fri 02:11:00 PM 29.9834 -94.9594 90° East  Level FlightAware Approximate
Fri 02:11:55 PM 29.8325 -95.1278 111° Southeast 258 297 6,400  Level Houston Center
Fri 02:12:00 PM 29.9833 -94.8347 90° East  Level FlightAware Approximate
Fri 02:12:57 PM 29.8500 -95.0461 76° East 270 311 8,300  Level Houston Center
Fri 02:13:00 PM 29.9834 -94.7101 90° East  Level FlightAware Approximate
Fri 02:13:58 PM 29.8742 -94.9661 71° East 264 304 10,200  Level Houston Center
Fri 02:14:59 PM 29.9008 -94.8711 72° East 306 352 10,900 954 Climbing Houston Center
Fri 02:16:29 PM 29.9428 -94.7339 71° East 326 375 12,600 1,105 Climbing Houston Center
Fri 02:17:31 PM 29.9728 -94.6325 71° East 333 383 13,700 1,065 Climbing Houston Center
Fri 02:18:33 PM 29.9900 -94.5231 80° East 345 397 14,800 1,016 Climbing Houston Center
Fri 02:19:35 PM 29.9922 -94.4042 89° East 352 405 15,800 960 Climbing Houston Center
Fri 02:20:38 PM 29.9972 -94.2897 87° East 356 410 16,800 1,104 Climbing Houston Center
Fri 02:21:40 PM 30.0150 -94.1533 81° East 358 412 18,100 1,113 Climbing Houston Center
Fri 02:22:42 PM 30.0292 -94.0411 82° East 358 412 19,100 968 Climbing Houston Center
Fri 02:23:44 PM 30.0428 -93.9278 82° East 358 412 20,100 774 Climbing Houston Center
Fri 02:24:46 PM 30.0569 -93.8128 82° East 362 417 20,700 629 Climbing Houston Center
Fri 02:25:48 PM 30.0717 -93.6931 82° East 373 429 21,400 677 Climbing Houston Center
Fri 02:26:50 PM 30.0883 -93.5467 82° East 386 444 22,100 629 Climbing Houston Center
Fri 02:27:52 PM 30.1025 -93.4228 82° East 396 456 22,700 629 Climbing Houston Center
Fri 02:28:54 PM 30.1178 -93.2992 82° East 395 455 23,400 624 Climbing Houston Center
Fri 02:29:57 PM 30.1328 -93.1722 82° East 400 460 24,000 816 Climbing Houston Center
Fri 02:30:59 PM 30.1786 -93.0353 69° East 389 448 25,100 968 Climbing Houston Center
Fri 02:32:01 PM 30.2353 -92.9333 57° Northeast 380 437 26,000 871 Climbing Houston Center
Fri 02:33:03 PM 30.2903 -92.8311 58° Northeast 379 436 26,900 871 Climbing Houston Center
Fri 02:34:05 PM 30.3456 -92.7300 58° Northeast 375 432 27,800 871 Climbing Houston Center
Fri 02:35:07 PM 30.4006 -92.6297 58° Northeast 372 428 28,700 871 Climbing Houston Center
Fri 02:36:09 PM 30.4547 -92.5286 58° Northeast 370 426 29,600 871 Climbing Houston Center
Fri 02:37:11 PM 30.5153 -92.4167 58° Northeast 372 428 30,500 768 Climbing Houston Center
Fri 02:38:14 PM 30.5703 -92.3144 58° Northeast 376 433 31,200 768 Climbing Houston Center
Fri 02:39:16 PM 30.6372 -92.1897 58° Northeast 379 436 32,100 823 Climbing Houston Center
Fri 02:40:18 PM 30.6936 -92.0856 58° Northeast 382 440 32,900 726 Climbing Houston Center
Fri 02:41:20 PM 30.7500 -91.9803 58° Northeast 385 443 33,600 677 Climbing Houston Center
Fri 02:42:22 PM 30.8058 -91.8750 58° Northeast 385 443 34,300 677 Climbing Houston Center
Fri 02:43:24 PM 30.8628 -91.7694 58° Northeast 386 444 35,000 339 Climbing Houston Center
Fri 02:44:26 PM 30.9325 -91.6383 58° Northeast 397 457 35,000  Level Houston Center
Fri 02:45:28 PM 30.9939 -91.5217 58° Northeast 419 482 35,000  Level Houston Center
Fri 02:46:31 PM 31.0542 -91.4106 58° Northeast 432 497 35,000  Level Houston Center
Fri 02:47:33 PM 31.1192 -91.2881 58° Northeast 443 510 35,000  Level Houston Center
Fri 02:48:35 PM 31.1958 -91.1378 59° Northeast 450 518 35,000  Level Houston Center
Fri 02:49:37 PM 31.2606 -91.0142 58° Northeast 447 514 35,000  Level Houston Center
Fri 02:50:39 PM 31.3264 -90.8889 58° Northeast 450 518 35,000  Level Houston Center
Fri 02:51:41 PM 31.3903 -90.7639 59° Northeast 448 516 35,000  Level Houston Center
Fri 02:52:43 PM 31.4542 -90.6400 59° Northeast 445 512 35,000  Level Houston Center
Fri 02:53:45 PM 31.5189 -90.5167 58° Northeast 446 513 35,000  Level Houston Center
Fri 02:54:48 PM 31.5947 -90.3686 59° Northeast 442 509 35,000  Level Houston Center
Fri 02:55:50 PM 31.6572 -90.2447 59° Northeast 441 507 35,000  Level Houston Center
Fri 02:56:52 PM 31.7200 -90.1208 59° Northeast 440 506 35,000  Level Houston Center
Fri 02:57:54 PM 31.7844 -89.9969 59° Northeast 442 509 35,000  Level Houston Center
Fri 02:58:56 PM 31.8467 -89.8742 59° Northeast 439 505 35,000  Level Houston Center
Fri 02:59:38 PM 31.8919 -89.7825 60° Northeast 435 501 35,000  Level Memphis Center
Fri 03:00:38 PM 31.9600 -89.6447 60° Northeast 435 501 35,000  Level Memphis Center
Fri 03:01:38 PM 32.0239 -89.5242 58° Northeast 435 501 35,000  Level Memphis Center
Fri 03:02:38 PM 32.0858 -89.3961 60° Northeast 435 501 35,000  Level Memphis Center
Fri 03:03:38 PM 32.1472 -89.2728 60° Northeast 435 501 35,000  Level Memphis Center
Fri 03:04:38 PM 32.2047 -89.1542 60° Northeast 430 495 35,000  Level Memphis Center
Fri 03:05:38 PM 32.2661 -89.0356 59° Northeast 420 483 35,000  Level Memphis Center
Fri 03:06:38 PM 32.3253 -88.9142 60° Northeast 420 483 35,000  Level Memphis Center
Fri 03:07:38 PM 32.3886 -88.7953 58° Northeast 425 489 35,000  Level Memphis Center
Fri 03:08:38 PM 32.4622 -88.6856 51° Northeast 425 489 35,000  Level Memphis Center
Fri 03:09:38 PM 32.5361 -88.5781 51° Northeast 420 483 35,000  Level Memphis Center
Fri 03:10:38 PM 32.6117 -88.4706 50° Northeast 420 483 35,000  Level Memphis Center
Fri 03:11:38 PM 32.6831 -88.3703 50° Northeast 430 495 35,000  Level Memphis Center
Fri 03:14:31 PM 32.9050 -88.0369 52° Northeast 433 498 35,000  Level Atlanta Center
Fri 03:15:31 PM 32.9858 -87.9242 49° Northeast 439 505 35,000  Level Atlanta Center
Fri 03:16:31 PM 33.0603 -87.8111 52° Northeast 439 505 35,000  Level Atlanta Center
Fri 03:17:31 PM 33.1369 -87.6928 52° Northeast 439 505 35,000  Level Atlanta Center
Fri 03:18:31 PM 33.2153 -87.5794 50° Northeast 439 505 35,000  Level Atlanta Center
Fri 03:19:31 PM 33.2939 -87.4608 52° Northeast 439 505 35,000  Level Atlanta Center
Fri 03:20:31 PM 33.3678 -87.3494 52° Northeast 439 505 35,000  Level Atlanta Center
Fri 03:21:31 PM 33.4439 -87.2378 51° Northeast 433 498 35,000  Level Atlanta Center
Fri 03:22:31 PM 33.5197 -87.1236 51° Northeast 433 498 35,000  Level Atlanta Center
Fri 03:23:31 PM 33.5956 -87.0117 51° Northeast 433 498 35,000  Level Atlanta Center
Fri 03:24:31 PM 33.6714 -86.8944 52° Northeast 433 498 35,000  Level Atlanta Center
Fri 03:25:31 PM 33.7511 -86.7894 48° Northeast 428 493 35,000  Level Atlanta Center
Fri 03:26:31 PM 33.8328 -86.6797 48° Northeast 428 493 35,000  Level Atlanta Center
Fri 03:27:31 PM 33.9164 -86.5719 47° Northeast 428 493 35,000  Level Atlanta Center
Fri 03:28:31 PM 33.9894 -86.4739 48° Northeast 435 501 35,000  Level Atlanta Center
Fri 03:29:31 PM 34.0708 -86.3636 48° Northeast 435 501 35,000  Level Atlanta Center
Fri 03:30:31 PM 34.1542 -86.2553 47° Northeast 435 501 35,000  Level Atlanta Center
Fri 03:31:31 PM 34.2289 -86.1542 48° Northeast 428 493 35,000  Level Atlanta Center
Fri 03:32:31 PM 34.2975 -86.0606 48° Northeast 397 457 35,000 -150 Level Atlanta Center
Fri 03:33:31 PM 34.3700 -85.9639 48° Northeast 382 440 34,700 -500 Descending Atlanta Center
Fri 03:34:31 PM 34.4467 -85.8600 48° Northeast 387 445 34,000 -350 Descending Atlanta Center
Fri 03:35:31 PM 34.5231 -85.7608 47° Northeast 400 460 34,000  Level Atlanta Center
Fri 03:36:31 PM 34.6019 -85.6514 49° Northeast 412 474 34,000  Level Atlanta Center
Fri 03:37:31 PM 34.6825 -85.5442 48° Northeast 417 480 34,000  Level Atlanta Center
Fri 03:38:31 PM 34.7675 -85.4244 49° Northeast 422 486 34,000 -150 Level Atlanta Center
Fri 03:39:31 PM 34.8478 -85.3144 48° Northeast 422 486 33,700 -1,350 Descending Atlanta Center
Fri 03:40:31 PM 34.9242 -85.2092 48° Northeast 427 491 31,300 -2,350 Descending Atlanta Center
Fri 03:41:31 PM 34.9981 -85.1086 48° Northeast 416 479 29,000 -2,350 Descending Atlanta Center
Fri 03:42:31 PM 35.0675 -85.0158 48° Northeast 405 466 26,600 -2,000 Descending Atlanta Center
Fri 03:43:31 PM 35.1478 -84.9100 47° Northeast 412 474 25,000 -800 Descending Atlanta Center
Fri 03:44:31 PM 35.2278 -84.8042 47° Northeast 412 474 25,000 -500 Level Atlanta Center
Fri 03:45:31 PM 35.3056 -84.7006 47° Northeast 412 474 24,000 -2,150 Descending Atlanta Center
Fri 03:46:31 PM 35.3853 -84.5942 47° Northeast 412 474 20,700 -3,300 Descending Atlanta Center
Fri 03:47:31 PM 35.4608 -84.4925 48° Northeast 412 474 17,400 -3,300 Descending Atlanta Center
Fri 03:48:31 PM 35.5342 -84.3986 46° Northeast 399 459 14,100 -2,200 Descending Atlanta Center
Fri 03:49:31 PM 35.5950 -84.3172 47° Northeast 357 411 13,000 -1,400 Descending Atlanta Center
Fri 03:50:31 PM 35.6514 -84.2739 32° Northeast 280 322 11,300 -2,050 Descending Atlanta Center
Fri 03:51:31 PM 35.7181 -84.2511 16° North 250 288 8,900 -2,000 Descending Atlanta Center
Fri 03:52:31 PM 35.7828 -84.2281 16° North 244 281 7,300 -1,000 Descending Atlanta Center
Fri 03:53:31 PM 35.8475 -84.2053 16° North 239 275 6,900 -200 Descending Atlanta Center
Fri 03:54:31 PM 35.8622 -84.1542 70° East 202 232 6,900 -700 Level Atlanta Center
Fri 03:55:31 PM 35.8142 -84.1769 201° Southwest 46 53 5,500 -1,400 Descending Atlanta Center
Fri 03:57:00 PM 35.8110 -83.9940 51° Northeast  Level Estimated

Login

Don't have an account? Register now (free) for customized features, flight alerts, and more!